PGWT

Details ICAO PGWT (TIQ)
Name TINIAN INTL
Region USA (Guam, Northern Mariana Islands)
Timezone Pacific/Saipan (UTC+10.0)
Plans Departing 4
Arriving 0
Stats Elevation 271 ft / 83 m (AMSL)
Location 14.999200° 145.619346°
Runways 1
Magnetic Variation 0.488° E
Sunrise 2018-05-25 19:48:34 UTC / 2018-05-26 05:48:34 Local
Sunset 2018-05-26 08:43:21 UTC / 2018-05-26 18:43:21 Local
Advertisement - Login to hide

Runways

ID Width Length Bearing (true) Bearing (mag) Surface Threshold Offset Overrun Length
08 150 ft / 46 m 8,590 ft / 2,618 m 78.98° 78.49° Asphalt 0 ft / 0 m 0 ft / 0 m
26 150 ft / 46 m 8,590 ft / 2,618 m 258.98° 258.49° Asphalt 0 ft / 0 m 0 ft / 0 m

Map

Weather


0- 5 10 15 20 25 30 35+ Temperature / ° C

Clouds and Precipitation
Forecast for 2018-05-25 18:00 UTC. Updated 6 hours ago

Ground ~20,000 ft ~40,000 ft Winds

METAR

PGWT 252250Z 09010KT 7SM FEW016 SCT140 28/24 A2989

TAF

TAF TAF PGWT 252104Z 2521/2618 10008KT P6SM VCSH FEW018 SCT150

Frequencies

Unicom 123.60 MHz CTAF
Warning: Do not use this data for real-world aviation or navigation. No guarantee of current accuracy is given.